sensor_id;sensor_type;location;lat;lon;timestamp;P1;durP1;ratioP1;P2;durP2;ratioP2
28170;SDS011;15458;53.346;-1.688;2023-05-27T00:00:03;13.00;;;3.83;;
28170;SDS011;15458;53.346;-1.688;2023-05-27T00:02:30;11.07;;;3.53;;
28170;SDS011;15458;53.346;-1.688;2023-05-27T00:04:56;15.32;;;4.55;;
28170;SDS011;15458;53.346;-1.688;2023-05-27T00:07:21;13.35;;;3.58;;
28170;SDS011;15458;53.346;-1.688;2023-05-27T00:09:47;17.35;;;4.75;;
28170;SDS011;15458;53.346;-1.688;2023-05-27T00:12:13;10.75;;;4.50;;
28170;SDS011;15458;53.346;-1.688;2023-05-27T00:14:38;14.70;;;3.45;;
28170;SDS011;15458;53.346;-1.688;2023-05-27T00:17:04;10.10;;;3.33;;
28170;SDS011;15458;53.346;-1.688;2023-05-27T00:19:30;14.02;;;3.78;;
28170;SDS011;15458;53.346;-1.688;2023-05-27T00:21:56;10.48;;;4.03;;
28170;SDS011;15458;53.346;-1.688;2023-05-27T00:24:22;14.90;;;4.13;;
28170;SDS011;15458;53.346;-1.688;2023-05-27T00:26:48;7.32;;;3.60;;
28170;SDS011;15458;53.346;-1.688;2023-05-27T00:29:15;10.85;;;3.70;;
28170;SDS011;15458;53.346;-1.688;2023-05-27T00:31:41;10.57;;;4.38;;
28170;SDS011;15458;53.346;-1.688;2023-05-27T00:34:07;9.70;;;4.00;;
28170;SDS011;15458;53.346;-1.688;2023-05-27T00:36:33;14.43;;;3.28;;
28170;SDS011;15458;53.346;-1.688;2023-05-27T00:38:59;11.25;;;3.45;;
28170;SDS011;15458;53.346;-1.688;2023-05-27T00:41:25;13.85;;;4.05;;
28170;SDS011;15458;53.346;-1.688;2023-05-27T00:43:51;11.55;;;3.90;;
28170;SDS011;15458;53.346;-1.688;2023-05-27T00:46:17;10.27;;;4.18;;
28170;SDS011;15458;53.346;-1.688;2023-05-27T00:48:44;12.05;;;3.60;;
28170;SDS011;15458;53.346;-1.688;2023-05-27T00:51:10;11.35;;;3.92;;
28170;SDS011;15458;53.346;-1.688;2023-05-27T00:53:38;9.93;;;3.55;;
28170;SDS011;15458;53.346;-1.688;2023-05-27T00:56:06;13.52;;;4.43;;
28170;SDS011;15458;53.346;-1.688;2023-05-27T00:58:34;17.00;;;4.72;;
28170;SDS011;15458;53.346;-1.688;2023-05-27T01:01:00;14.18;;;4.75;;
28170;SDS011;15458;53.346;-1.688;2023-05-27T01:03:27;7.45;;;3.83;;
28170;SDS011;15458;53.346;-1.688;2023-05-27T01:05:54;13.15;;;4.03;;
28170;SDS011;15458;53.346;-1.688;2023-05-27T01:08:37;9.45;;;3.67;;
28170;SDS011;15458;53.346;-1.688;2023-05-27T01:11:34;15.15;;;3.95;;
28170;SDS011;15458;53.346;-1.688;2023-05-27T01:14:13;13.95;;;4.32;;
28170;SDS011;15458;53.346;-1.688;2023-05-27T01:16:41;13.40;;;4.68;;
28170;SDS011;15458;53.346;-1.688;2023-05-27T01:19:15;9.32;;;3.63;;
28170;SDS011;15458;53.346;-1.688;2023-05-27T01:21:52;8.10;;;3.28;;
28170;SDS011;15458;53.346;-1.688;2023-05-27T01:24:19;10.95;;;4.60;;
28170;SDS011;15458;53.346;-1.688;2023-05-27T01:26:45;13.57;;;3.53;;
28170;SDS011;15458;53.346;-1.688;2023-05-27T01:29:10;14.15;;;4.20;;
28170;SDS011;15458;53.346;-1.688;2023-05-27T01:31:47;10.10;;;4.20;;
28170;SDS011;15458;53.346;-1.688;2023-05-27T01:34:35;10.60;;;4.53;;
28170;SDS011;15458;53.346;-1.688;2023-05-27T01:37:11;10.23;;;4.22;;
28170;SDS011;15458;53.346;-1.688;2023-05-27T01:39:41;15.00;;;4.07;;
28170;SDS011;15458;53.346;-1.688;2023-05-27T01:42:08;12.48;;;4.13;;
28170;SDS011;15458;53.346;-1.688;2023-05-27T01:44:34;8.43;;;3.58;;
28170;SDS011;15458;53.346;-1.688;2023-05-27T01:47:01;8.75;;;3.72;;
28170;SDS011;15458;53.346;-1.688;2023-05-27T01:49:27;12.52;;;3.78;;
28170;SDS011;15458;53.346;-1.688;2023-05-27T01:51:54;12.50;;;3.95;;
28170;SDS011;15458;53.346;-1.688;2023-05-27T01:54:20;10.52;;;4.28;;
28170;SDS011;15458;53.346;-1.688;2023-05-27T01:56:46;17.15;;;4.50;;
28170;SDS011;15458;53.346;-1.688;2023-05-27T01:59:12;13.05;;;4.90;;
28170;SDS011;15458;53.346;-1.688;2023-05-27T02:01:37;12.98;;;4.13;;
28170;SDS011;15458;53.346;-1.688;2023-05-27T02:04:03;12.35;;;4.93;;
28170;SDS011;15458;53.346;-1.688;2023-05-27T02:06:29;9.40;;;4.50;;
28170;SDS011;15458;53.346;-1.688;2023-05-27T02:08:55;11.45;;;4.70;;
28170;SDS011;15458;53.346;-1.688;2023-05-27T02:11:21;9.68;;;4.45;;
28170;SDS011;15458;53.346;-1.688;2023-05-27T02:13:46;11.10;;;4.22;;
28170;SDS011;15458;53.346;-1.688;2023-05-27T02:16:12;11.00;;;4.57;;
28170;SDS011;15458;53.346;-1.688;2023-05-27T02:18:39;10.27;;;4.03;;
28170;SDS011;15458;53.346;-1.688;2023-05-27T02:21:05;9.50;;;3.40;;
28170;SDS011;15458;53.346;-1.688;2023-05-27T02:23:34;8.43;;;4.05;;
28170;SDS011;15458;53.346;-1.688;2023-05-27T02:26:01;10.38;;;3.63;;
28170;SDS011;15458;53.346;-1.688;2023-05-27T02:28:27;13.80;;;4.45;;
28170;SDS011;15458;53.346;-1.688;2023-05-27T02:30:53;12.43;;;3.97;;
28170;SDS011;15458;53.346;-1.688;2023-05-27T02:33:19;10.00;;;3.88;;
28170;SDS011;15458;53.346;-1.688;2023-05-27T02:35:45;11.05;;;3.90;;
28170;SDS011;15458;53.346;-1.688;2023-05-27T02:38:11;10.02;;;3.30;;
28170;SDS011;15458;53.346;-1.688;2023-05-27T02:40:36;9.48;;;4.20;;
28170;SDS011;15458;53.346;-1.688;2023-05-27T02:43:02;10.55;;;3.58;;
28170;SDS011;15458;53.346;-1.688;2023-05-27T02:45:28;11.98;;;4.22;;
28170;SDS011;15458;53.346;-1.688;2023-05-27T02:47:54;10.32;;;4.60;;
28170;SDS011;15458;53.346;-1.688;2023-05-27T02:50:24;11.43;;;4.00;;
28170;SDS011;15458;53.346;-1.688;2023-05-27T02:52:50;10.15;;;3.90;;
28170;SDS011;15458;53.346;-1.688;2023-05-27T02:55:16;12.57;;;4.30;;
28170;SDS011;15458;53.346;-1.688;2023-05-27T02:57:41;10.85;;;4.20;;
28170;SDS011;15458;53.346;-1.688;2023-05-27T03:00:07;7.43;;;4.25;;
28170;SDS011;15458;53.346;-1.688;2023-05-27T03:02:34;10.75;;;4.13;;
28170;SDS011;15458;53.346;-1.688;2023-05-27T03:05:00;8.98;;;4.00;;
28170;SDS011;15458;53.346;-1.688;2023-05-27T03:07:26;9.45;;;4.70;;
28170;SDS011;15458;53.346;-1.688;2023-05-27T03:09:54;10.05;;;3.97;;
28170;SDS011;15458;53.346;-1.688;2023-05-27T03:12:21;12.75;;;4.40;;
28170;SDS011;15458;53.346;-1.688;2023-05-27T03:14:47;12.18;;;4.10;;
28170;SDS011;15458;53.346;-1.688;2023-05-27T03:17:13;9.15;;;4.43;;
28170;SDS011;15458;53.346;-1.688;2023-05-27T03:19:38;12.10;;;4.60;;
28170;SDS011;15458;53.346;-1.688;2023-05-27T03:22:04;11.75;;;5.68;;
28170;SDS011;15458;53.346;-1.688;2023-05-27T03:24:32;11.63;;;4.18;;
28170;SDS011;15458;53.346;-1.688;2023-05-27T03:26:58;13.68;;;4.40;;
28170;SDS011;15458;53.346;-1.688;2023-05-27T03:29:26;11.52;;;4.53;;
28170;SDS011;15458;53.346;-1.688;2023-05-27T03:31:52;15.55;;;4.32;;
28170;SDS011;15458;53.346;-1.688;2023-05-27T03:34:18;10.70;;;4.30;;
28170;SDS011;15458;53.346;-1.688;2023-05-27T03:36:43;9.27;;;4.07;;
28170;SDS011;15458;53.346;-1.688;2023-05-27T03:39:11;11.60;;;5.32;;
28170;SDS011;15458;53.346;-1.688;2023-05-27T03:41:37;9.85;;;4.82;;
28170;SDS011;15458;53.346;-1.688;2023-05-27T03:44:03;13.00;;;5.20;;
28170;SDS011;15458;53.346;-1.688;2023-05-27T03:46:29;13.45;;;4.32;;
28170;SDS011;15458;53.346;-1.688;2023-05-27T03:48:54;14.95;;;4.53;;
28170;SDS011;15458;53.346;-1.688;2023-05-27T03:51:20;12.45;;;4.47;;
28170;SDS011;15458;53.346;-1.688;2023-05-27T03:53:46;13.63;;;4.95;;
28170;SDS011;15458;53.346;-1.688;2023-05-27T03:56:12;9.82;;;4.88;;
28170;SDS011;15458;53.346;-1.688;2023-05-27T03:58:38;10.85;;;4.40;;
28170;SDS011;15458;53.346;-1.688;2023-05-27T04:01:03;15.48;;;5.20;;
28170;SDS011;15458;53.346;-1.688;2023-05-27T04:03:30;12.38;;;4.30;;
28170;SDS011;15458;53.346;-1.688;2023-05-27T04:05:57;12.50;;;4.03;;
28170;SDS011;15458;53.346;-1.688;2023-05-27T04:08:23;13.35;;;4.57;;
28170;SDS011;15458;53.346;-1.688;2023-05-27T04:10:51;14.05;;;5.10;;
28170;SDS011;15458;53.346;-1.688;2023-05-27T04:13:18;10.13;;;4.32;;
28170;SDS011;15458;53.346;-1.688;2023-05-27T04:15:43;12.27;;;4.85;;
28170;SDS011;15458;53.346;-1.688;2023-05-27T04:18:09;9.93;;;4.38;;
28170;SDS011;15458;53.346;-1.688;2023-05-27T04:20:39;10.00;;;4.55;;
28170;SDS011;15458;53.346;-1.688;2023-05-27T04:23:07;8.27;;;4.28;;
28170;SDS011;15458;53.346;-1.688;2023-05-27T04:25:33;9.57;;;4.68;;
28170;SDS011;15458;53.346;-1.688;2023-05-27T04:28:00;9.93;;;4.18;;
28170;SDS011;15458;53.346;-1.688;2023-05-27T04:30:29;10.57;;;4.53;;
28170;SDS011;15458;53.346;-1.688;2023-05-27T04:32:55;15.68;;;4.90;;
28170;SDS011;15458;53.346;-1.688;2023-05-27T04:35:21;12.13;;;5.30;;
28170;SDS011;15458;53.346;-1.688;2023-05-27T04:37:48;10.48;;;4.93;;
28170;SDS011;15458;53.346;-1.688;2023-05-27T04:40:14;15.48;;;4.75;;
28170;SDS011;15458;53.346;-1.688;2023-05-27T04:42:40;15.82;;;4.68;;
28170;SDS011;15458;53.346;-1.688;2023-05-27T04:45:08;9.07;;;4.55;;
28170;SDS011;15458;53.346;-1.688;2023-05-27T04:47:36;10.05;;;4.53;;
28170;SDS011;15458;53.346;-1.688;2023-05-27T04:50:05;9.63;;;4.22;;
28170;SDS011;15458;53.346;-1.688;2023-05-27T04:52:32;8.88;;;4.50;;
28170;SDS011;15458;53.346;-1.688;2023-05-27T04:55:05;10.67;;;5.70;;
28170;SDS011;15458;53.346;-1.688;2023-05-27T04:57:31;11.93;;;4.47;;
28170;SDS011;15458;53.346;-1.688;2023-05-27T04:59:58;9.07;;;4.28;;
28170;SDS011;15458;53.346;-1.688;2023-05-27T05:02:43;9.10;;;5.00;;
28170;SDS011;15458;53.346;-1.688;2023-05-27T05:05:11;16.50;;;5.22;;
28170;SDS011;15458;53.346;-1.688;2023-05-27T05:07:37;14.55;;;5.68;;
28170;SDS011;15458;53.346;-1.688;2023-05-27T05:10:05;15.55;;;5.55;;
28170;SDS011;15458;53.346;-1.688;2023-05-27T05:12:32;12.30;;;5.07;;
28170;SDS011;15458;53.346;-1.688;2023-05-27T05:14:58;12.23;;;5.15;;
28170;SDS011;15458;53.346;-1.688;2023-05-27T05:17:24;13.38;;;5.03;;
28170;SDS011;15458;53.346;-1.688;2023-05-27T05:19:51;16.65;;;5.53;;
28170;SDS011;15458;53.346;-1.688;2023-05-27T05:22:17;11.90;;;5.70;;
28170;SDS011;15458;53.346;-1.688;2023-05-27T05:24:44;10.80;;;5.53;;
28170;SDS011;15458;53.346;-1.688;2023-05-27T05:27:11;14.13;;;6.25;;
28170;SDS011;15458;53.346;-1.688;2023-05-27T05:29:36;16.80;;;5.30;;
28170;SDS011;15458;53.346;-1.688;2023-05-27T05:32:02;14.95;;;5.45;;
28170;SDS011;15458;53.346;-1.688;2023-05-27T05:34:28;12.90;;;5.28;;
28170;SDS011;15458;53.346;-1.688;2023-05-27T05:36:54;11.65;;;5.53;;
28170;SDS011;15458;53.346;-1.688;2023-05-27T05:39:20;14.75;;;5.97;;
28170;SDS011;15458;53.346;-1.688;2023-05-27T05:41:46;12.77;;;5.35;;
28170;SDS011;15458;53.346;-1.688;2023-05-27T05:44:12;18.77;;;5.97;;
28170;SDS011;15458;53.346;-1.688;2023-05-27T05:46:38;10.38;;;5.30;;
28170;SDS011;15458;53.346;-1.688;2023-05-27T05:49:03;11.98;;;5.90;;
28170;SDS011;15458;53.346;-1.688;2023-05-27T05:51:30;17.83;;;5.47;;
28170;SDS011;15458;53.346;-1.688;2023-05-27T05:53:56;14.43;;;5.90;;
28170;SDS011;15458;53.346;-1.688;2023-05-27T05:56:22;16.50;;;5.90;;
28170;SDS011;15458;53.346;-1.688;2023-05-27T05:58:48;20.25;;;6.20;;
28170;SDS011;15458;53.346;-1.688;2023-05-27T06:01:15;15.80;;;5.93;;
28170;SDS011;15458;53.346;-1.688;2023-05-27T06:03:41;23.33;;;6.38;;
28170;SDS011;15458;53.346;-1.688;2023-05-27T06:06:06;15.60;;;5.50;;
28170;SDS011;15458;53.346;-1.688;2023-05-27T06:08:32;16.20;;;6.03;;
28170;SDS011;15458;53.346;-1.688;2023-05-27T06:10:58;14.43;;;6.75;;
28170;SDS011;15458;53.346;-1.688;2023-05-27T06:13:24;17.10;;;6.47;;
28170;SDS011;15458;53.346;-1.688;2023-05-27T06:15:50;19.63;;;6.07;;
28170;SDS011;15458;53.346;-1.688;2023-05-27T06:18:15;19.20;;;6.40;;
28170;SDS011;15458;53.346;-1.688;2023-05-27T06:20:41;18.80;;;5.70;;
28170;SDS011;15458;53.346;-1.688;2023-05-27T06:23:07;16.52;;;5.72;;
28170;SDS011;15458;53.346;-1.688;2023-05-27T06:25:32;15.20;;;5.68;;
28170;SDS011;15458;53.346;-1.688;2023-05-27T06:27:58;14.27;;;5.03;;
28170;SDS011;15458;53.346;-1.688;2023-05-27T06:30:24;16.58;;;5.63;;
28170;SDS011;15458;53.346;-1.688;2023-05-27T06:32:50;16.77;;;5.70;;
28170;SDS011;15458;53.346;-1.688;2023-05-27T06:35:16;14.52;;;5.68;;
28170;SDS011;15458;53.346;-1.688;2023-05-27T06:37:42;14.93;;;5.32;;
28170;SDS011;15458;53.346;-1.688;2023-05-27T06:40:08;11.77;;;5.07;;
28170;SDS011;15458;53.346;-1.688;2023-05-27T06:42:35;18.38;;;5.68;;
28170;SDS011;15458;53.346;-1.688;2023-05-27T06:45:01;13.40;;;5.10;;
28170;SDS011;15458;53.346;-1.688;2023-05-27T06:47:27;14.48;;;5.10;;
28170;SDS011;15458;53.346;-1.688;2023-05-27T06:49:52;15.65;;;5.07;;
28170;SDS011;15458;53.346;-1.688;2023-05-27T06:52:18;17.00;;;4.63;;
28170;SDS011;15458;53.346;-1.688;2023-05-27T06:54:44;14.48;;;4.72;;
28170;SDS011;15458;53.346;-1.688;2023-05-27T06:57:11;16.40;;;5.25;;
28170;SDS011;15458;53.346;-1.688;2023-05-27T06:59:36;15.13;;;4.88;;
28170;SDS011;15458;53.346;-1.688;2023-05-27T07:02:02;14.20;;;4.75;;
28170;SDS011;15458;53.346;-1.688;2023-05-27T07:04:28;18.27;;;5.22;;
28170;SDS011;15458;53.346;-1.688;2023-05-27T07:06:53;23.52;;;5.22;;
28170;SDS011;15458;53.346;-1.688;2023-05-27T07:09:19;29.30;;;4.30;;
28170;SDS011;15458;53.346;-1.688;2023-05-27T07:11:45;18.98;;;3.80;;
28170;SDS011;15458;53.346;-1.688;2023-05-27T07:14:10;15.90;;;4.45;;
28170;SDS011;15458;53.346;-1.688;2023-05-27T07:16:36;13.98;;;4.55;;
28170;SDS011;15458;53.346;-1.688;2023-05-27T07:19:02;15.82;;;4.22;;
28170;SDS011;15458;53.346;-1.688;2023-05-27T07:21:28;16.55;;;3.70;;
28170;SDS011;15458;53.346;-1.688;2023-05-27T07:23:54;22.02;;;4.95;;
28170;SDS011;15458;53.346;-1.688;2023-05-27T07:26:20;15.05;;;3.70;;
28170;SDS011;15458;53.346;-1.688;2023-05-27T07:28:46;24.67;;;4.38;;
28170;SDS011;15458;53.346;-1.688;2023-05-27T07:31:13;14.38;;;3.47;;
28170;SDS011;15458;53.346;-1.688;2023-05-27T07:33:38;18.67;;;4.10;;
28170;SDS011;15458;53.346;-1.688;2023-05-27T07:36:05;19.67;;;4.72;;
28170;SDS011;15458;53.346;-1.688;2023-05-27T07:38:31;16.05;;;3.58;;
28170;SDS011;15458;53.346;-1.688;2023-05-27T07:40:57;17.67;;;3.85;;
28170;SDS011;15458;53.346;-1.688;2023-05-27T07:43:24;15.20;;;3.75;;
28170;SDS011;15458;53.346;-1.688;2023-05-27T07:45:50;15.50;;;3.97;;
28170;SDS011;15458;53.346;-1.688;2023-05-27T07:48:15;14.80;;;3.72;;
28170;SDS011;15458;53.346;-1.688;2023-05-27T07:50:41;20.30;;;3.63;;
28170;SDS011;15458;53.346;-1.688;2023-05-27T07:53:06;15.57;;;4.35;;
28170;SDS011;15458;53.346;-1.688;2023-05-27T07:55:33;18.42;;;4.47;;
28170;SDS011;15458;53.346;-1.688;2023-05-27T07:57:58;18.88;;;4.20;;
28170;SDS011;15458;53.346;-1.688;2023-05-27T08:00:25;19.35;;;3.72;;
28170;SDS011;15458;53.346;-1.688;2023-05-27T08:02:51;17.27;;;3.67;;
28170;SDS011;15458;53.346;-1.688;2023-05-27T08:05:16;20.52;;;3.90;;
28170;SDS011;15458;53.346;-1.688;2023-05-27T08:07:42;13.18;;;3.80;;
28170;SDS011;15458;53.346;-1.688;2023-05-27T08:10:08;17.25;;;3.47;;
28170;SDS011;15458;53.346;-1.688;2023-05-27T08:12:34;16.77;;;3.80;;
28170;SDS011;15458;53.346;-1.688;2023-05-27T08:15:00;16.27;;;3.20;;
28170;SDS011;15458;53.346;-1.688;2023-05-27T08:17:25;15.23;;;3.65;;
28170;SDS011;15458;53.346;-1.688;2023-05-27T08:19:51;16.40;;;3.92;;
28170;SDS011;15458;53.346;-1.688;2023-05-27T08:22:18;14.50;;;3.60;;
28170;SDS011;15458;53.346;-1.688;2023-05-27T08:24:44;15.27;;;3.40;;
28170;SDS011;15458;53.346;-1.688;2023-05-27T08:27:13;14.50;;;3.50;;
28170;SDS011;15458;53.346;-1.688;2023-05-27T08:29:43;14.85;;;3.50;;
28170;SDS011;15458;53.346;-1.688;2023-05-27T08:32:09;17.95;;;3.67;;
28170;SDS011;15458;53.346;-1.688;2023-05-27T08:34:35;14.48;;;3.78;;
28170;SDS011;15458;53.346;-1.688;2023-05-27T08:37:01;13.00;;;3.25;;
28170;SDS011;15458;53.346;-1.688;2023-05-27T08:39:28;14.85;;;3.03;;
28170;SDS011;15458;53.346;-1.688;2023-05-27T08:41:54;17.13;;;3.67;;
28170;SDS011;15458;53.346;-1.688;2023-05-27T08:44:23;9.75;;;2.83;;
28170;SDS011;15458;53.346;-1.688;2023-05-27T08:46:49;13.82;;;3.97;;
28170;SDS011;15458;53.346;-1.688;2023-05-27T08:49:18;15.93;;;3.80;;
28170;SDS011;15458;53.346;-1.688;2023-05-27T08:51:45;16.27;;;2.83;;
28170;SDS011;15458;53.346;-1.688;2023-05-27T08:54:14;12.68;;;3.25;;
28170;SDS011;15458;53.346;-1.688;2023-05-27T08:56:40;17.02;;;3.17;;
28170;SDS011;15458;53.346;-1.688;2023-05-27T08:59:08;13.55;;;3.10;;
28170;SDS011;15458;53.346;-1.688;2023-05-27T09:01:33;15.50;;;4.03;;
28170;SDS011;15458;53.346;-1.688;2023-05-27T09:04:00;21.13;;;3.00;;
28170;SDS011;15458;53.346;-1.688;2023-05-27T09:06:26;11.45;;;2.88;;
28170;SDS011;15458;53.346;-1.688;2023-05-27T09:08:52;16.35;;;3.78;;
28170;SDS011;15458;53.346;-1.688;2023-05-27T09:11:24;17.05;;;3.95;;
28170;SDS011;15458;53.346;-1.688;2023-05-27T09:13:53;14.43;;;3.08;;
28170;SDS011;15458;53.346;-1.688;2023-05-27T09:16:20;15.85;;;3.63;;
28170;SDS011;15458;53.346;-1.688;2023-05-27T09:18:47;20.52;;;3.97;;
28170;SDS011;15458;53.346;-1.688;2023-05-27T09:21:13;15.90;;;3.83;;
28170;SDS011;15458;53.346;-1.688;2023-05-27T09:23:41;19.30;;;4.00;;
28170;SDS011;15458;53.346;-1.688;2023-05-27T09:26:09;13.65;;;3.63;;
28170;SDS011;15458;53.346;-1.688;2023-05-27T09:28:36;11.77;;;2.92;;
28170;SDS011;15458;53.346;-1.688;2023-05-27T09:31:06;16.88;;;3.50;;
28170;SDS011;15458;53.346;-1.688;2023-05-27T09:33:33;16.58;;;3.35;;
28170;SDS011;15458;53.346;-1.688;2023-05-27T09:36:01;16.38;;;3.45;;
28170;SDS011;15458;53.346;-1.688;2023-05-27T09:38:31;15.70;;;3.28;;
28170;SDS011;15458;53.346;-1.688;2023-05-27T09:40:58;15.82;;;3.67;;
28170;SDS011;15458;53.346;-1.688;2023-05-27T09:43:25;19.40;;;3.67;;
28170;SDS011;15458;53.346;-1.688;2023-05-27T09:45:52;14.60;;;3.65;;
28170;SDS011;15458;53.346;-1.688;2023-05-27T09:48:29;19.05;;;4.18;;
28170;SDS011;15458;53.346;-1.688;2023-05-27T09:50:56;13.75;;;3.28;;
28170;SDS011;15458;53.346;-1.688;2023-05-27T09:53:25;12.57;;;2.72;;
28170;SDS011;15458;53.346;-1.688;2023-05-27T09:55:57;13.20;;;3.42;;
28170;SDS011;15458;53.346;-1.688;2023-05-27T09:58:23;13.05;;;3.03;;
28170;SDS011;15458;53.346;-1.688;2023-05-27T10:00:49;12.23;;;3.05;;
28170;SDS011;15458;53.346;-1.688;2023-05-27T10:03:16;16.08;;;3.50;;
28170;SDS011;15458;53.346;-1.688;2023-05-27T10:05:45;16.17;;;3.13;;
28170;SDS011;15458;53.346;-1.688;2023-05-27T10:08:14;10.18;;;3.17;;
28170;SDS011;15458;53.346;-1.688;2023-05-27T10:10:40;12.65;;;2.58;;
28170;SDS011;15458;53.346;-1.688;2023-05-27T10:13:06;12.88;;;3.33;;
28170;SDS011;15458;53.346;-1.688;2023-05-27T10:15:33;19.42;;;4.20;;
28170;SDS011;15458;53.346;-1.688;2023-05-27T10:18:01;11.35;;;3.08;;
28170;SDS011;15458;53.346;-1.688;2023-05-27T10:20:34;7.22;;;3.03;;
28170;SDS011;15458;53.346;-1.688;2023-05-27T10:23:20;10.15;;;2.47;;
28170;SDS011;15458;53.346;-1.688;2023-05-27T10:26:06;10.68;;;2.92;;
28170;SDS011;15458;53.346;-1.688;2023-05-27T10:28:36;14.02;;;3.03;;
28170;SDS011;15458;53.346;-1.688;2023-05-27T10:31:07;8.45;;;2.70;;
28170;SDS011;15458;53.346;-1.688;2023-05-27T10:33:46;10.20;;;3.00;;
28170;SDS011;15458;53.346;-1.688;2023-05-27T10:36:22;16.52;;;2.80;;
28170;SDS011;15458;53.346;-1.688;2023-05-27T10:38:55;10.32;;;2.60;;
28170;SDS011;15458;53.346;-1.688;2023-05-27T10:41:22;8.60;;;2.97;;
28170;SDS011;15458;53.346;-1.688;2023-05-27T10:43:55;10.13;;;2.58;;
28170;SDS011;15458;53.346;-1.688;2023-05-27T10:46:24;9.40;;;2.50;;
28170;SDS011;15458;53.346;-1.688;2023-05-27T10:48:52;5.40;;;2.50;;
28170;SDS011;15458;53.346;-1.688;2023-05-27T10:54:44;11.00;;;3.38;;
28170;SDS011;15458;53.346;-1.688;2023-05-27T10:57:12;11.18;;;2.45;;
28170;SDS011;15458;53.346;-1.688;2023-05-27T10:59:40;9.00;;;2.53;;
28170;SDS011;15458;53.346;-1.688;2023-05-27T11:02:16;7.80;;;2.88;;
28170;SDS011;15458;53.346;-1.688;2023-05-27T11:04:42;9.48;;;2.65;;
28170;SDS011;15458;53.346;-1.688;2023-05-27T11:07:08;11.63;;;3.05;;
28170;SDS011;15458;53.346;-1.688;2023-05-27T11:09:46;8.90;;;2.88;;
28170;SDS011;15458;53.346;-1.688;2023-05-27T11:12:17;10.23;;;3.05;;
28170;SDS011;15458;53.346;-1.688;2023-05-27T11:14:51;7.97;;;3.00;;
28170;SDS011;15458;53.346;-1.688;2023-05-27T11:17:19;10.02;;;3.63;;
28170;SDS011;15458;53.346;-1.688;2023-05-27T11:19:45;11.07;;;3.00;;
28170;SDS011;15458;53.346;-1.688;2023-05-27T11:22:12;7.28;;;2.40;;
28170;SDS011;15458;53.346;-1.688;2023-05-27T11:24:40;8.00;;;3.05;;
28170;SDS011;15458;53.346;-1.688;2023-05-27T11:27:09;6.43;;;2.60;;
28170;SDS011;15458;53.346;-1.688;2023-05-27T11:29:39;11.23;;;2.95;;
28170;SDS011;15458;53.346;-1.688;2023-05-27T11:32:15;12.55;;;2.90;;
28170;SDS011;15458;53.346;-1.688;2023-05-27T11:34:45;7.40;;;2.47;;
28170;SDS011;15458;53.346;-1.688;2023-05-27T11:37:12;7.15;;;2.60;;
28170;SDS011;15458;53.346;-1.688;2023-05-27T11:39:50;10.68;;;2.88;;
28170;SDS011;15458;53.346;-1.688;2023-05-27T11:42:20;9.18;;;2.60;;
28170;SDS011;15458;53.346;-1.688;2023-05-27T11:44:51;5.05;;;2.20;;
28170;SDS011;15458;53.346;-1.688;2023-05-27T11:47:18;10.20;;;2.63;;
28170;SDS011;15458;53.346;-1.688;2023-05-27T11:49:45;7.80;;;2.45;;
28170;SDS011;15458;53.346;-1.688;2023-05-27T11:52:12;8.82;;;2.75;;
28170;SDS011;15458;53.346;-1.688;2023-05-27T11:54:38;8.05;;;2.30;;
28170;SDS011;15458;53.346;-1.688;2023-05-27T11:57:08;6.50;;;2.30;;
28170;SDS011;15458;53.346;-1.688;2023-05-27T12:02:32;6.13;;;2.10;;
28170;SDS011;15458;53.346;-1.688;2023-05-27T12:04:58;12.15;;;2.70;;
28170;SDS011;15458;53.346;-1.688;2023-05-27T12:07:23;6.55;;;2.08;;
28170;SDS011;15458;53.346;-1.688;2023-05-27T12:09:49;9.52;;;2.65;;
28170;SDS011;15458;53.346;-1.688;2023-05-27T12:12:18;6.60;;;2.45;;
28170;SDS011;15458;53.346;-1.688;2023-05-27T12:14:46;9.55;;;2.35;;
28170;SDS011;15458;53.346;-1.688;2023-05-27T12:17:12;7.53;;;2.55;;
28170;SDS011;15458;53.346;-1.688;2023-05-27T12:19:38;8.27;;;2.38;;
28170;SDS011;15458;53.346;-1.688;2023-05-27T12:22:03;13.30;;;2.75;;
28170;SDS011;15458;53.346;-1.688;2023-05-27T12:24:29;7.22;;;2.58;;
28170;SDS011;15458;53.346;-1.688;2023-05-27T12:26:55;12.35;;;2.75;;
28170;SDS011;15458;53.346;-1.688;2023-05-27T12:29:24;8.80;;;2.83;;
28170;SDS011;15458;53.346;-1.688;2023-05-27T12:31:52;9.45;;;2.38;;
28170;SDS011;15458;53.346;-1.688;2023-05-27T12:34:18;9.90;;;2.78;;
28170;SDS011;15458;53.346;-1.688;2023-05-27T12:36:44;7.72;;;2.80;;
28170;SDS011;15458;53.346;-1.688;2023-05-27T12:39:09;11.68;;;2.42;;
28170;SDS011;15458;53.346;-1.688;2023-05-27T12:41:35;12.80;;;2.80;;
28170;SDS011;15458;53.346;-1.688;2023-05-27T12:44:02;9.73;;;2.50;;
28170;SDS011;15458;53.346;-1.688;2023-05-27T12:46:28;9.57;;;2.72;;
28170;SDS011;15458;53.346;-1.688;2023-05-27T12:48:57;9.25;;;3.85;;
28170;SDS011;15458;53.346;-1.688;2023-05-27T12:51:22;11.23;;;3.05;;
28170;SDS011;15458;53.346;-1.688;2023-05-27T12:53:49;8.25;;;2.75;;
28170;SDS011;15458;53.346;-1.688;2023-05-27T12:56:14;9.38;;;3.50;;
28170;SDS011;15458;53.346;-1.688;2023-05-27T12:58:40;6.60;;;2.75;;
28170;SDS011;15458;53.346;-1.688;2023-05-27T13:01:06;8.30;;;3.00;;
28170;SDS011;15458;53.346;-1.688;2023-05-27T13:03:32;10.45;;;2.83;;
28170;SDS011;15458;53.346;-1.688;2023-05-27T13:05:58;7.32;;;2.80;;
28170;SDS011;15458;53.346;-1.688;2023-05-27T13:08:24;8.10;;;2.42;;
28170;SDS011;15458;53.346;-1.688;2023-05-27T13:10:50;9.77;;;3.00;;
28170;SDS011;15458;53.346;-1.688;2023-05-27T13:13:16;9.07;;;2.85;;
28170;SDS011;15458;53.346;-1.688;2023-05-27T13:15:44;8.98;;;2.70;;
28170;SDS011;15458;53.346;-1.688;2023-05-27T13:18:10;9.77;;;2.45;;
28170;SDS011;15458;53.346;-1.688;2023-05-27T13:20:36;9.57;;;2.50;;
28170;SDS011;15458;53.346;-1.688;2023-05-27T13:23:02;8.93;;;2.40;;
28170;SDS011;15458;53.346;-1.688;2023-05-27T13:25:28;8.35;;;2.67;;
28170;SDS011;15458;53.346;-1.688;2023-05-27T13:27:54;7.40;;;2.78;;
28170;SDS011;15458;53.346;-1.688;2023-05-27T13:30:23;8.63;;;2.20;;
28170;SDS011;15458;53.346;-1.688;2023-05-27T13:32:53;9.25;;;3.13;;
28170;SDS011;15458;53.346;-1.688;2023-05-27T13:35:22;11.93;;;2.83;;
28170;SDS011;15458;53.346;-1.688;2023-05-27T13:37:48;5.78;;;2.25;;
28170;SDS011;15458;53.346;-1.688;2023-05-27T13:40:14;8.15;;;2.50;;
28170;SDS011;15458;53.346;-1.688;2023-05-27T13:42:39;8.60;;;2.50;;
28170;SDS011;15458;53.346;-1.688;2023-05-27T13:45:07;8.50;;;2.83;;
28170;SDS011;15458;53.346;-1.688;2023-05-27T13:47:34;5.10;;;2.47;;
28170;SDS011;15458;53.346;-1.688;2023-05-27T13:50:03;6.32;;;2.28;;
28170;SDS011;15458;53.346;-1.688;2023-05-27T13:52:29;8.05;;;2.28;;
28170;SDS011;15458;53.346;-1.688;2023-05-27T13:54:58;7.72;;;2.50;;
28170;SDS011;15458;53.346;-1.688;2023-05-27T13:57:24;6.82;;;2.63;;
28170;SDS011;15458;53.346;-1.688;2023-05-27T13:59:49;9.98;;;2.20;;
28170;SDS011;15458;53.346;-1.688;2023-05-27T14:02:17;5.25;;;2.13;;
28170;SDS011;15458;53.346;-1.688;2023-05-27T14:04:43;7.00;;;2.10;;
28170;SDS011;15458;53.346;-1.688;2023-05-27T14:07:09;9.52;;;2.97;;
28170;SDS011;15458;53.346;-1.688;2023-05-27T14:09:35;8.77;;;2.38;;
28170;SDS011;15458;53.346;-1.688;2023-05-27T14:12:00;7.47;;;2.60;;
28170;SDS011;15458;53.346;-1.688;2023-05-27T14:14:27;7.85;;;2.60;;
28170;SDS011;15458;53.346;-1.688;2023-05-27T14:16:53;7.90;;;2.67;;
28170;SDS011;15458;53.346;-1.688;2023-05-27T14:19:19;7.95;;;2.40;;
28170;SDS011;15458;53.346;-1.688;2023-05-27T14:21:44;7.15;;;2.42;;
28170;SDS011;15458;53.346;-1.688;2023-05-27T14:24:10;6.47;;;2.40;;
28170;SDS011;15458;53.346;-1.688;2023-05-27T14:26:39;6.55;;;2.30;;
28170;SDS011;15458;53.346;-1.688;2023-05-27T14:29:05;6.75;;;2.65;;
28170;SDS011;15458;53.346;-1.688;2023-05-27T14:31:31;10.10;;;2.75;;